Time;durP1;ratioP1;P1;durP2;ratioP2;P2;SDS_P1;SDS_P2;PMS_P1;PMS_P2;Temp;Humidity;BMP_temperature;BMP_pressure;BME280_temperature;BME280_humidity;BME280_pressure;Samples;Min_cycle;Max_cycle;Signal;HPM_P1;HPM_P2
2024/02/19 00:01:55;;;;;;;17.20;16.00;;;8.80;99.90;;;;;;4777155;29;20515;-48
2024/02/19 00:04:21;;;;;;;18.43;17.03;;;8.80;99.90;;;;;;4790347;29;20188;-46
2024/02/19 00:06:48;;;;;;;17.27;15.87;;;8.70;99.90;;;;;;4786567;29;20201;-44
2024/02/19 00:09:13;;;;;;;17.33;16.07;;;8.80;99.90;;;;;;4785037;29;20214;-45
2024/02/19 00:11:39;;;;;;;17.53;16.17;;;8.80;99.90;;;;;;4781425;29;20452;-48
2024/02/19 00:14:05;;;;;;;16.97;15.87;;;8.80;99.90;;;;;;4783051;29;20718;-45
2024/02/19 00:16:30;;;;;;;16.27;15.17;;;8.80;99.90;;;;;;4787752;29;20202;-46
2024/02/19 00:18:56;;;;;;;15.50;14.53;;;8.80;99.90;;;;;;4791543;29;20219;-44
2024/02/19 00:21:22;;;;;;;15.60;14.60;;;8.80;99.90;;;;;;4784304;29;20203;-44
2024/02/19 00:23:47;;;;;;;16.80;15.70;;;8.80;99.90;;;;;;4784619;29;20187;-52
2024/02/19 00:26:13;;;;;;;16.43;15.10;;;8.80;99.90;;;;;;4791093;29;20198;-45
2024/02/19 00:28:39;;;;;;;15.40;14.40;;;8.80;99.90;;;;;;4793681;29;20768;-48
2024/02/19 00:31:05;;;;;;;15.90;14.90;;;8.80;99.90;;;;;;4790335;29;20202;-48
2024/02/19 00:33:31;;;;;;;16.47;15.37;;;8.90;99.90;;;;;;4786973;29;20919;-45
2024/02/19 00:35:57;;;;;;;15.70;14.70;;;8.90;99.90;;;;;;4786580;29;21311;-48
2024/02/19 00:38:22;;;;;;;16.10;15.00;;;8.90;99.90;;;;;;4788386;29;20505;-47
2024/02/19 00:40:48;;;;;;;15.40;14.50;;;8.90;99.90;;;;;;4782313;29;20205;-49
2024/02/19 00:43:14;;;;;;;14.60;13.70;;;8.90;99.90;;;;;;4786644;29;20658;-48
2024/02/19 00:45:40;;;;;;;15.30;14.50;;;8.90;99.90;;;;;;4788495;29;20209;-47
2024/02/19 00:48:06;;;;;;;15.53;14.57;;;9.00;99.90;;;;;;4793107;29;20741;-48
2024/02/19 00:50:31;;;;;;;15.33;14.43;;;9.00;99.90;;;;;;4781169;29;20701;-46
2024/02/19 00:52:57;;;;;;;13.80;13.10;;;9.10;99.90;;;;;;4788341;29;20497;-48
2024/02/19 00:55:23;;;;;;;15.67;14.67;;;9.20;99.90;;;;;;4786355;29;20210;-46
2024/02/19 00:57:48;;;;;;;14.00;13.30;;;9.30;99.90;;;;;;4785944;29;20286;-45
2024/02/19 01:00:14;;;;;;;13.97;13.27;;;9.40;99.90;;;;;;4781055;29;20215;-46
2024/02/19 01:02:40;;;;;;;13.63;12.93;;;9.50;93.60;;;;;;4794303;29;20194;-50
2024/02/19 01:05:06;;;;;;;14.20;13.50;;;9.60;56.40;;;;;;4782842;29;20575;-46
2024/02/19 01:07:32;;;;;;;13.47;12.87;;;9.60;34.70;;;;;;4792549;29;20931;-49
2024/02/19 01:09:58;;;;;;;14.33;13.63;;;9.80;10.80;;;;;;4786275;29;20852;-49
2024/02/19 01:12:24;;;;;;;13.73;13.13;;;9.80;3.40;;;;;;4779973;29;20227;-44
2024/02/19 01:14:49;;;;;;;13.67;12.97;;;9.90;1.00;;;;;;4793522;29;20256;-44
2024/02/19 01:17:15;;;;;;;12.80;12.30;;;9.90;1.00;;;;;;4782330;29;20601;-46
2024/02/19 01:19:41;;;;;;;12.40;11.90;;;9.90;1.00;;;;;;4783805;29;20667;-45
2024/02/19 01:22:06;;;;;;;11.40;10.90;;;10.00;1.00;;;;;;4786394;29;20278;-44
2024/02/19 01:24:32;;;;;;;11.50;11.00;;;10.10;1.00;;;;;;4793918;29;20661;-45
2024/02/19 01:26:59;;;;;;;11.57;11.00;;;10.10;1.00;;;;;;4790450;29;20394;-47
2024/02/19 01:29:25;;;;;;;11.40;10.90;;;10.10;1.00;;;;;;4789843;29;20194;-47
2024/02/19 01:31:51;;;;;;;11.50;11.00;;;10.10;1.00;;;;;;4788389;29;20971;-45
2024/02/19 01:34:18;;;;;;;11.30;10.80;;;10.20;1.00;;;;;;4792450;29;20467;-45
2024/02/19 01:36:46;;;;;;;11.70;11.20;;;10.20;1.00;;;;;;4781014;29;20306;-48
2024/02/19 01:39:12;;;;;;;11.90;11.30;;;10.20;1.00;;;;;;4792328;29;20574;-45
2024/02/19 01:41:37;;;;;;;11.67;11.17;;;10.20;1.00;;;;;;4784132;29;21025;-44
2024/02/19 01:44:04;;;;;;;11.17;10.73;;;10.20;99.90;;;;;;4792231;29;20575;-45
2024/02/19 01:46:31;;;;;;;11.03;10.53;;;10.40;1.00;;;;;;4782838;29;20202;-44
2024/02/19 01:48:57;;;;;;;11.53;11.03;;;10.40;99.90;;;;;;4788812;29;20928;-47
2024/02/19 01:51:24;;;;;;;11.00;10.50;;;10.50;1.00;;;;;;4778500;29;20440;-48
2024/02/19 01:53:52;;;;;;;11.30;10.80;;;10.50;1.00;;;;;;4778149;29;20835;-44
2024/02/19 01:56:18;;;;;;;11.03;10.53;;;10.50;99.90;;;;;;4784477;29;20521;-45
2024/02/19 01:58:44;;;;;;;11.10;10.60;;;10.60;1.00;;;;;;4782008;29;20608;-45
2024/02/19 02:01:15;;;;;;;11.17;10.70;;;10.50;99.90;;;;;;4790507;29;20903;-46
2024/02/19 02:03:43;;;;;;;10.90;10.30;;;10.60;1.00;;;;;;4786424;29;20570;-45
2024/02/19 02:06:08;;;;;;;10.83;10.40;;;10.50;1.00;;;;;;4788560;29;20448;-45
2024/02/19 02:08:39;;;;;;;10.70;10.20;;;10.60;99.90;;;;;;4793353;29;21014;-45
2024/02/19 02:11:05;;;;;;;10.67;10.27;;;10.60;1.00;;;;;;4783188;29;20191;-44
2024/02/19 02:13:33;;;;;;;10.97;10.47;;;10.60;1.00;;;;;;4783759;29;20495;-44
2024/02/19 02:16:01;;;;;;;11.00;10.53;;;10.60;99.90;;;;;;4784110;29;20957;-46
2024/02/19 02:18:26;;;;;;;11.00;10.50;;;10.60;1.00;;;;;;4789385;29;20490;-45
2024/02/19 02:20:52;;;;;;;10.73;10.23;;;10.60;99.90;;;;;;4786033;29;21594;-47
2024/02/19 02:23:20;;;;;;;10.23;9.83;;;10.70;99.90;;;;;;4779170;29;20378;-44
2024/02/19 02:25:45;;;;;;;10.80;10.40;;;10.60;1.00;;;;;;4783769;29;20194;-43
2024/02/19 02:28:11;;;;;;;10.80;10.40;;;10.60;1.00;;;;;;4782713;29;21206;-44
2024/02/19 02:30:36;;;;;;;10.80;10.40;;;10.60;99.90;;;;;;4791224;29;21000;-44
2024/02/19 02:33:02;;;;;;;11.00;10.50;;;10.60;99.90;;;;;;4776023;29;20199;-47
2024/02/19 02:35:28;;;;;;;10.90;10.50;;;10.60;1.00;;;;;;4784207;29;20203;-45
2024/02/19 02:37:54;;;;;;;10.57;10.17;;;10.70;99.90;;;;;;4784746;29;20432;-46
2024/02/19 02:40:20;;;;;;;10.60;10.20;;;10.70;99.90;;;;;;4783072;29;20214;-46
2024/02/19 02:42:45;;;;;;;10.67;10.27;;;10.70;99.90;;;;;;4776998;29;20203;-48
2024/02/19 02:45:11;;;;;;;10.80;10.30;;;10.70;13.20;;;;;;4776892;29;20234;-45
2024/02/19 02:47:36;;;;;;;10.33;9.93;;;10.70;21.20;;;;;;4790320;29;20186;-46
2024/02/19 02:50:02;;;;;;;10.53;10.10;;;10.70;99.90;;;;;;4792603;29;20205;-45
2024/02/19 02:52:28;;;;;;;10.20;9.80;;;10.70;1.00;;;;;;4783824;29;20227;-47
2024/02/19 02:54:53;;;;;;;10.60;10.20;;;10.70;1.00;;;;;;4787618;29;20618;-45
2024/02/19 02:57:19;;;;;;;10.70;10.30;;;10.80;1.00;;;;;;4776628;29;20191;-45
2024/02/19 02:59:45;;;;;;;10.20;9.80;;;10.70;1.00;;;;;;4787148;29;20218;-47
2024/02/19 03:02:10;;;;;;;10.50;10.10;;;10.60;93.80;;;;;;4784314;29;20296;-50
2024/02/19 03:04:36;;;;;;;10.67;10.17;;;10.60;99.90;;;;;;4787756;29;20191;-49
2024/02/19 03:07:02;;;;;;;10.43;10.03;;;10.70;76.10;;;;;;4790974;29;20186;-50
2024/02/19 03:09:28;;;;;;;10.70;10.20;;;10.80;17.30;;;;;;4783973;29;20365;-43
2024/02/19 03:11:53;;;;;;;11.10;10.60;;;10.70;1.00;;;;;;4783889;29;20959;-48
2024/02/19 03:14:19;;;;;;;10.63;10.23;;;10.80;36.70;;;;;;4792439;29;20480;-46
2024/02/19 03:16:45;;;;;;;10.50;10.10;;;10.80;1.00;;;;;;4785782;29;20363;-44
2024/02/19 03:19:10;;;;;;;10.80;10.30;;;10.80;99.90;;;;;;4780621;29;20219;-46
2024/02/19 03:21:36;;;;;;;10.60;10.20;;;10.80;99.90;;;;;;4780127;29;20285;-45
2024/02/19 03:24:02;;;;;;;10.50;10.10;;;10.70;99.90;;;;;;4784609;29;20199;-45
2024/02/19 03:26:28;;;;;;;10.37;9.97;;;10.80;99.90;;;;;;4791090;29;20452;-43
2024/02/19 03:28:54;;;;;;;10.63;10.23;;;10.80;99.90;;;;;;4791432;29;20432;-45
2024/02/19 03:31:19;;;;;;;10.53;10.13;;;10.80;99.90;;;;;;4784912;29;20206;-45
2024/02/19 03:33:46;;;;;;;9.93;9.53;;;10.90;1.00;;;;;;4775401;29;20199;-45
2024/02/19 03:36:11;;;;;;;9.40;9.10;;;10.80;99.90;;;;;;4788150;29;20483;-46
2024/02/19 03:38:37;;;;;;;10.07;9.67;;;10.80;1.00;;;;;;4784105;29;20566;-44
2024/02/19 03:41:10;;;;;;;10.60;10.20;;;10.80;1.00;;;;;;4782730;29;20187;-46
2024/02/19 03:43:36;;;;;;;10.30;9.90;;;10.80;99.90;;;;;;4782018;29;20421;-49
2024/02/19 03:46:04;;;;;;;10.17;9.77;;;10.80;1.00;;;;;;4793488;29;20793;-45
2024/02/19 03:48:30;;;;;;;9.60;9.20;;;10.70;99.90;;;;;;4780561;29;20195;-44
2024/02/19 03:50:56;;;;;;;10.30;9.90;;;10.70;99.90;;;;;;4792065;29;20443;-46
2024/02/19 03:53:22;;;;;;;10.00;9.60;;;10.70;1.00;;;;;;4785825;29;20962;-46
2024/02/19 03:55:47;;;;;;;10.30;9.90;;;10.60;1.00;;;;;;4795575;29;20711;-45
2024/02/19 03:58:13;;;;;;;10.70;10.20;;;10.60;1.00;;;;;;4783788;29;20433;-47
2024/02/19 04:00:39;;;;;;;10.57;10.17;;;10.60;99.90;;;;;;4784438;29;20268;-44
2024/02/19 04:03:04;;;;;;;10.57;10.07;;;10.60;99.90;;;;;;4789920;29;20237;-44
2024/02/19 04:05:30;;;;;;;9.87;9.37;;;10.60;17.80;;;;;;4791965;29;20840;-45
2024/02/19 04:07:55;;;;;;;10.00;9.60;;;10.60;1.00;;;;;;4786894;29;20223;-45
2024/02/19 04:10:21;;;;;;;10.30;9.90;;;10.70;1.00;;;;;;4791835;29;20198;-45
2024/02/19 04:12:47;;;;;;;10.60;10.20;;;10.70;20.30;;;;;;4789748;29;20242;-47
2024/02/19 04:15:13;;;;;;;11.10;10.70;;;10.70;1.00;;;;;;4779840;29;20207;-47
2024/02/19 04:17:39;;;;;;;10.03;9.63;;;10.60;50.30;;;;;;4782113;29;20235;-43
2024/02/19 04:20:05;;;;;;;11.07;10.40;;;10.60;99.90;;;;;;4786601;29;20484;-45
2024/02/19 04:22:31;;;;;;;10.40;10.00;;;10.70;99.90;;;;;;4795118;29;20200;-45
2024/02/19 04:24:56;;;;;;;10.83;10.43;;;10.70;99.90;;;;;;4783910;29;20436;-45
2024/02/19 04:27:22;;;;;;;10.20;9.80;;;10.60;99.90;;;;;;4788513;29;20432;-48
2024/02/19 04:29:48;;;;;;;10.30;9.90;;;10.60;99.90;;;;;;4786573;29;20242;-45
2024/02/19 04:32:13;;;;;;;10.73;10.33;;;10.60;99.90;;;;;;4783921;29;20199;-45
2024/02/19 04:34:39;;;;;;;11.00;10.60;;;10.40;1.00;;;;;;4791367;29;20231;-44
2024/02/19 04:37:06;;;;;;;12.00;11.50;;;10.30;1.00;;;;;;4781060;29;20279;-46
2024/02/19 04:39:35;;;;;;;11.73;11.23;;;10.10;1.00;;;;;;4788214;29;20222;-44
2024/02/19 04:42:04;;;;;;;11.00;10.60;;;10.00;1.00;;;;;;4793105;29;20780;-46
2024/02/19 04:44:30;;;;;;;11.80;11.30;;;9.80;1.00;;;;;;4790566;29;20648;-45
2024/02/19 04:46:56;;;;;;;11.97;11.47;;;9.70;1.00;;;;;;4791860;29;20467;-45
2024/02/19 04:49:22;;;;;;;12.07;11.57;;;9.70;1.00;;;;;;4782376;29;20241;-46
2024/02/19 04:51:48;;;;;;;12.00;11.50;;;9.60;1.00;;;;;;4791034;29;20978;-48
2024/02/19 04:54:14;;;;;;;12.17;11.67;;;9.60;1.00;;;;;;4784243;29;20947;-43
2024/02/19 04:56:40;;;;;;;11.47;11.07;;;9.50;1.00;;;;;;4779391;29;20964;-45
2024/02/19 04:59:05;;;;;;;10.43;10.03;;;9.50;1.00;;;;;;4782954;29;20234;-45
2024/02/19 05:01:31;;;;;;;11.47;11.07;;;9.40;1.00;;;;;;4791478;29;20194;-46
2024/02/19 05:03:58;;;;;;;12.20;11.70;;;9.40;1.00;;;;;;4788184;29;20191;-45
2024/02/19 05:06:23;;;;;;;11.50;11.10;;;9.40;1.00;;;;;;4786997;29;20436;-46
2024/02/19 05:08:49;;;;;;;11.73;11.23;;;9.40;1.00;;;;;;4776010;29;20498;-45
2024/02/19 05:11:15;;;;;;;12.43;11.93;;;9.40;1.00;;;;;;4791003;29;20274;-50
2024/02/19 05:13:40;;;;;;;12.67;12.17;;;9.40;1.00;;;;;;4783327;29;20294;-45
2024/02/19 05:16:06;;;;;;;12.60;12.10;;;9.30;1.00;;;;;;4781014;29;20502;-44
2024/02/19 05:18:32;;;;;;;12.67;12.17;;;9.40;1.00;;;;;;4788598;29;20258;-50
2024/02/19 05:20:58;;;;;;;12.23;11.73;;;9.40;1.00;;;;;;4790569;29;20858;-46
2024/02/19 05:23:24;;;;;;;11.40;11.00;;;9.30;1.00;;;;;;4786622;29;20188;-43
2024/02/19 05:25:49;;;;;;;11.50;11.10;;;9.40;1.00;;;;;;4790373;29;20194;-44
2024/02/19 05:28:15;;;;;;;12.40;11.80;;;9.40;1.00;;;;;;4793970;29;20182;-47
2024/02/19 05:30:41;;;;;;;12.20;11.60;;;9.40;1.00;;;;;;4780022;29;20563;-45
2024/02/19 05:33:07;;;;;;;12.40;11.90;;;9.30;1.00;;;;;;4783563;29;20677;-46
2024/02/19 05:35:33;;;;;;;12.00;11.50;;;9.20;1.00;;;;;;4778207;29;20340;-44
2024/02/19 05:37:58;;;;;;;12.10;11.60;;;9.20;1.00;;;;;;4779692;29;20444;-47
2024/02/19 05:40:24;;;;;;;11.80;11.30;;;9.10;1.00;;;;;;4781181;29;20938;-45
2024/02/19 05:42:49;;;;;;;11.40;11.00;;;9.10;1.00;;;;;;4783834;29;20289;-45
2024/02/19 05:45:15;;;;;;;12.37;11.87;;;9.10;1.00;;;;;;4788758;29;20595;-45
2024/02/19 05:47:41;;;;;;;11.27;10.80;;;9.00;1.00;;;;;;4792377;29;20700;-46
2024/02/19 05:50:07;;;;;;;11.50;11.00;;;9.00;1.00;;;;;;4789928;29;20377;-43
2024/02/19 05:52:32;;;;;;;11.67;11.17;;;9.00;1.00;;;;;;4792515;29;20198;-43
2024/02/19 05:54:58;;;;;;;10.87;10.47;;;9.00;1.00;;;;;;4791343;29;20440;-46
2024/02/19 05:57:25;;;;;;;12.57;12.07;;;9.00;1.00;;;;;;4793654;29;20194;-44
2024/02/19 05:59:50;;;;;;;13.60;13.00;;;9.00;1.00;;;;;;4788624;29;20255;-45
2024/02/19 06:02:16;;;;;;;13.10;12.50;;;8.90;1.00;;;;;;4784686;29;20574;-43
2024/02/19 06:04:41;;;;;;;13.87;13.27;;;8.80;1.00;;;;;;4783219;29;20196;-43
2024/02/19 06:07:07;;;;;;;12.97;12.47;;;8.60;2.90;;;;;;4785956;29;20793;-45
2024/02/19 06:09:33;;;;;;;11.93;11.33;;;8.50;15.40;;;;;;4791503;29;20272;-44
2024/02/19 06:11:58;;;;;;;12.40;11.90;;;8.40;40.70;;;;;;4779887;29;20195;-43
2024/02/19 06:14:26;;;;;;;12.63;12.13;;;8.30;20.00;;;;;;4781907;29;20278;-44
2024/02/19 06:16:51;;;;;;;12.10;11.60;;;8.30;55.30;;;;;;4785496;29;20254;-43
2024/02/19 06:19:17;;;;;;;12.00;11.50;;;8.20;82.80;;;;;;4792166;29;20793;-46
2024/02/19 06:21:43;;;;;;;11.50;11.00;;;8.20;99.90;;;;;;4791292;29;20582;-45
2024/02/19 06:24:09;;;;;;;11.53;11.03;;;8.10;99.60;;;;;;4789657;29;20213;-46
2024/02/19 06:26:34;;;;;;;11.93;11.43;;;8.10;99.90;;;;;;4781594;29;20423;-45
2024/02/19 06:29:00;;;;;;;11.43;10.93;;;8.10;91.40;;;;;;4782228;29;20247;-45
2024/02/19 06:31:27;;;;;;;11.80;11.30;;;7.90;98.70;;;;;;4775283;29;20191;-44
2024/02/19 06:33:54;;;;;;;11.00;10.60;;;7.90;93.30;;;;;;4785719;29;20825;-45
2024/02/19 06:36:20;;;;;;;11.73;11.23;;;7.90;93.30;;;;;;4783987;29;20527;-44
2024/02/19 06:38:46;;;;;;;11.13;10.73;;;7.90;99.90;;;;;;4792903;29;20752;-45
2024/02/19 06:41:12;;;;;;;11.60;11.10;;;7.80;99.90;;;;;;4786883;29;20427;-48
2024/02/19 06:43:37;;;;;;;10.63;10.23;;;7.90;87.80;;;;;;4778002;29;20223;-44
2024/02/19 06:46:03;;;;;;;11.50;11.10;;;7.90;91.20;;;;;;4789166;29;20200;-49
2024/02/19 06:48:29;;;;;;;10.97;10.57;;;7.80;84.60;;;;;;4785070;29;20585;-45
2024/02/19 06:50:54;;;;;;;11.67;11.17;;;7.80;84.80;;;;;;4786008;29;20205;-44
2024/02/19 06:53:20;;;;;;;10.77;10.37;;;7.80;94.80;;;;;;4786358;29;20437;-44
2024/02/19 06:55:46;;;;;;;10.67;10.27;;;7.80;99.90;;;;;;4785433;29;20251;-43
2024/02/19 06:58:11;;;;;;;10.90;10.50;;;7.80;99.90;;;;;;4788914;29;20191;-43
2024/02/19 07:00:37;;;;;;;11.10;10.70;;;7.80;99.90;;;;;;4780223;29;20273;-44
2024/02/19 07:03:03;;;;;;;12.07;11.27;;;7.70;99.90;;;;;;4789607;29;20855;-48
2024/02/19 07:05:28;;;;;;;11.70;11.20;;;7.70;99.90;;;;;;4792624;29;20560;-52
2024/02/19 07:07:54;;;;;;;11.90;11.40;;;7.80;99.90;;;;;;4784916;29;20207;-49
2024/02/19 07:10:19;;;;;;;10.90;10.50;;;7.80;99.90;;;;;;4792546;29;20202;-50
2024/02/19 07:12:45;;;;;;;11.17;10.67;;;7.70;99.90;;;;;;4784784;29;20242;-50
2024/02/19 07:15:12;;;;;;;11.40;10.90;;;7.80;99.90;;;;;;4796447;29;20201;-48
2024/02/19 07:17:37;;;;;;;12.03;11.50;;;7.80;99.90;;;;;;4793341;29;20605;-49
2024/02/19 07:20:03;;;;;;;11.07;10.67;;;7.80;99.90;;;;;;4787135;29;20486;-50
2024/02/19 07:22:29;;;;;;;10.50;10.10;;;7.70;99.90;;;;;;4789677;29;20190;-50
2024/02/19 07:24:54;;;;;;;12.07;11.57;;;7.80;99.90;;;;;;4789449;29;20429;-53
2024/02/19 07:27:21;;;;;;;12.07;11.57;;;7.70;99.90;;;;;;4787385;29;20198;-51
2024/02/19 07:29:47;;;;;;;11.80;11.30;;;7.70;99.90;;;;;;4788784;29;20675;-53
2024/02/19 07:32:13;;;;;;;11.80;11.30;;;7.70;99.90;;;;;;4784244;29;20463;-54
2024/02/19 07:34:38;;;;;;;11.63;11.17;;;7.70;99.90;;;;;;4793667;29;20194;-53
2024/02/19 07:37:04;;;;;;;11.53;11.03;;;7.70;99.90;;;;;;4792651;29;20202;-55
2024/02/19 07:39:29;;;;;;;11.97;11.47;;;7.70;99.90;;;;;;4785577;29;20275;-51
2024/02/19 07:41:55;;;;;;;14.07;13.37;;;7.60;99.90;;;;;;4791330;29;20646;-51
2024/02/19 07:44:21;;;;;;;12.40;11.80;;;7.70;99.90;;;;;;4780973;29;20353;-47
2024/02/19 07:46:47;;;;;;;12.50;11.90;;;7.70;99.90;;;;;;4793418;29;20594;-53
2024/02/19 07:49:13;;;;;;;11.80;11.30;;;7.70;99.90;;;;;;4794422;29;20221;-47
2024/02/19 07:51:38;;;;;;;13.40;12.70;;;7.70;99.90;;;;;;4794951;29;20985;-50
2024/02/19 07:54:04;;;;;;;11.37;10.90;;;7.70;99.90;;;;;;4795403;29;20436;-52
2024/02/19 07:56:30;;;;;;;12.53;11.93;;;7.70;99.90;;;;;;4795112;29;20198;-50
2024/02/19 07:58:55;;;;;;;11.90;11.40;;;7.80;99.90;;;;;;4784422;29;20671;-49
2024/02/19 08:01:21;;;;;;;11.60;11.10;;;7.70;99.90;;;;;;4777791;29;20807;-52
2024/02/19 08:03:47;;;;;;;12.00;11.50;;;7.80;99.90;;;;;;4783935;29;20195;-52
2024/02/19 08:06:12;;;;;;;11.77;11.27;;;7.80;99.90;;;;;;4790747;29;20186;-50
2024/02/19 08:08:38;;;;;;;12.20;11.60;;;7.80;99.90;;;;;;4788284;29;20671;-53
2024/02/19 08:11:04;;;;;;;11.50;11.00;;;7.80;99.90;;;;;;4795122;29;20247;-55
2024/02/19 08:13:29;;;;;;;11.90;11.40;;;7.80;99.90;;;;;;4786885;29;20234;-50
2024/02/19 08:15:55;;;;;;;11.50;11.00;;;7.70;99.90;;;;;;4795475;29;20613;-51
2024/02/19 08:18:20;;;;;;;11.87;11.37;;;7.80;99.90;;;;;;4780376;29;20528;-50
2024/02/19 08:20:47;;;;;;;11.93;11.43;;;7.70;99.90;;;;;;4789674;29;20194;-45
2024/02/19 08:23:13;;;;;;;11.83;11.10;;;7.70;99.90;;;;;;4791721;29;20650;-49
2024/02/19 08:25:39;;;;;;;12.37;11.77;;;7.60;99.90;;;;;;4793052;29;20794;-44
2024/02/19 08:28:05;;;;;;;12.70;12.00;;;7.50;99.90;;;;;;4789662;29;20190;-45
2024/02/19 08:30:30;;;;;;;12.63;11.93;;;7.50;99.90;;;;;;4790674;29;20199;-47
2024/02/19 08:32:56;;;;;;;12.90;12.10;;;7.50;99.90;;;;;;4782987;29;20583;-46
2024/02/19 08:35:22;;;;;;;13.00;12.40;;;7.50;99.90;;;;;;4789163;29;20191;-44
2024/02/19 08:37:47;;;;;;;13.53;12.77;;;7.50;99.90;;;;;;4790349;29;20249;-45
2024/02/19 08:40:13;;;;;;;13.37;12.67;;;7.50;99.90;;;;;;4788873;29;20752;-45
2024/02/19 08:42:39;;;;;;;13.70;12.73;;;7.40;99.90;;;;;;4791646;29;20188;-44
2024/02/19 08:45:05;;;;;;;13.40;12.60;;;7.40;99.90;;;;;;4785617;29;20182;-44
2024/02/19 08:47:31;;;;;;;13.33;12.53;;;7.40;99.90;;;;;;4785650;29;20190;-44
2024/02/19 08:49:57;;;;;;;12.30;11.70;;;7.40;99.90;;;;;;4790330;29;20436;-46
2024/02/19 08:52:23;;;;;;;12.70;12.10;;;7.50;99.90;;;;;;4790736;29;20454;-44
2024/02/19 08:54:49;;;;;;;13.00;12.30;;;7.40;99.90;;;;;;4792396;29;21098;-44
2024/02/19 08:57:16;;;;;;;12.90;12.00;;;7.40;99.90;;;;;;4794681;29;20293;-43
2024/02/19 08:59:45;;;;;;;12.10;11.50;;;7.40;99.90;;;;;;4789067;29;20752;-46
2024/02/19 09:02:12;;;;;;;12.30;11.70;;;7.40;99.90;;;;;;4783786;29;20473;-46
2024/02/19 09:04:40;;;;;;;11.77;11.07;;;7.50;99.90;;;;;;4790347;29;20601;-47
2024/02/19 09:07:07;;;;;;;12.10;11.40;;;7.50;99.90;;;;;;4791117;29;20797;-44
2024/02/19 09:09:33;;;;;;;12.70;12.07;;;7.60;99.90;;;;;;4790894;29;20428;-44
2024/02/19 09:11:58;;;;;;;10.90;10.40;;;7.60;99.90;;;;;;4789352;29;20452;-46
2024/02/19 09:14:26;;;;;;;11.93;11.43;;;7.70;99.90;;;;;;4786019;29;20328;-46
2024/02/19 09:16:53;;;;;;;12.33;11.57;;;7.80;99.90;;;;;;4786552;29;20639;-44
2024/02/19 09:19:19;;;;;;;11.90;11.40;;;7.80;99.90;;;;;;4786615;29;20998;-46
2024/02/19 09:21:44;;;;;;;11.83;11.33;;;7.90;99.90;;;;;;4781506;29;20440;-43
2024/02/19 09:24:13;;;;;;;11.13;10.63;;;7.90;99.90;;;;;;4785590;29;20497;-44
2024/02/19 09:26:39;;;;;;;12.50;11.80;;;7.90;99.90;;;;;;4787120;29;20195;-44
2024/02/19 09:29:04;;;;;;;11.80;11.20;;;7.90;99.90;;;;;;4787430;29;20428;-43
2024/02/19 09:31:30;;;;;;;11.17;10.67;;;7.90;99.90;;;;;;4788012;29;20244;-43
2024/02/19 09:33:55;;;;;;;12.47;11.87;;;7.90;99.90;;;;;;4786564;29;20199;-42
2024/02/19 09:36:21;;;;;;;12.13;11.43;;;7.90;99.90;;;;;;4793961;29;20198;-43
2024/02/19 09:38:47;;;;;;;11.57;11.07;;;8.00;99.90;;;;;;4792309;29;20222;-43
2024/02/19 09:41:13;;;;;;;11.10;10.60;;;8.00;99.90;;;;;;4793537;29;20187;-48
2024/02/19 09:43:39;;;;;;;11.80;11.20;;;8.00;99.90;;;;;;4791192;29;20518;-52
2024/02/19 09:46:09;;;;;;;11.80;11.20;;;8.00;99.90;;;;;;4788116;29;20205;-46
2024/02/19 09:48:36;;;;;;;11.50;10.80;;;8.10;99.90;;;;;;4790558;29;20771;-53
2024/02/19 09:51:04;;;;;;;11.40;10.90;;;8.00;99.90;;;;;;4791477;29;20455;-50
2024/02/19 09:53:34;;;;;;;11.67;11.07;;;8.00;99.90;;;;;;4793022;29;20436;-50
2024/02/19 09:55:59;;;;;;;11.70;11.20;;;8.00;99.90;;;;;;4793354;29;20458;-49
2024/02/19 09:58:26;;;;;;;11.33;10.83;;;8.10;99.90;;;;;;4782067;29;20436;-52
2024/02/19 10:00:52;;;;;;;10.80;10.30;;;8.10;99.40;;;;;;4776164;29;20531;-52
2024/02/19 10:03:19;;;;;;;11.13;10.53;;;8.10;99.90;;;;;;4787026;29;20432;-45
2024/02/19 10:05:45;;;;;;;9.70;9.30;;;8.20;99.90;;;;;;4787409;29;20717;-43
2024/02/19 10:08:14;;;;;;;10.03;9.53;;;8.20;99.90;;;;;;4792792;29;20428;-45
2024/02/19 10:10:43;;;;;;;10.43;10.00;;;8.30;99.00;;;;;;4784027;29;20519;-45
2024/02/19 10:13:11;;;;;;;10.80;10.30;;;8.30;99.90;;;;;;4783508;29;20555;-43
2024/02/19 10:15:37;;;;;;;10.20;9.77;;;8.30;97.00;;;;;;4783681;29;20429;-48
2024/02/19 10:18:19;;;;;;;10.40;9.90;;;8.40;99.90;;;;;;4790464;29;20965;-43
2024/02/19 10:20:52;;;;;;;9.90;9.40;;;8.30;99.90;;;;;;4789788;29;20479;-45
2024/02/19 10:23:19;;;;;;;10.37;9.90;;;8.40;99.90;;;;;;4787529;29;20553;-42
2024/02/19 10:25:45;;;;;;;10.00;9.60;;;8.50;99.90;;;;;;4791724;29;20420;-43
2024/02/19 10:28:11;;;;;;;10.40;9.90;;;8.60;99.90;;;;;;4787735;29;20451;-44
2024/02/19 10:30:37;;;;;;;10.03;9.63;;;8.60;99.90;;;;;;4781369;29;20888;-47
2024/02/19 10:33:03;;;;;;;10.50;9.70;;;8.70;99.90;;;;;;4784244;29;20455;-43
2024/02/19 10:35:29;;;;;;;10.07;9.57;;;8.70;99.90;;;;;;4785157;29;20432;-44
2024/02/19 10:37:59;;;;;;;9.97;9.57;;;8.80;99.90;;;;;;4793108;29;20436;-44
2024/02/19 10:40:26;;;;;;;9.87;9.47;;;8.70;99.90;;;;;;4786849;29;20275;-44
2024/02/19 10:42:52;;;;;;;9.43;9.03;;;8.70;99.90;;;;;;4791057;29;20455;-43
2024/02/19 10:45:20;;;;;;;10.70;10.13;;;8.70;99.90;;;;;;4788129;29;20485;-47
2024/02/19 10:47:46;;;;;;;11.00;10.50;;;8.60;99.90;;;;;;4785463;29;20663;-45
2024/02/19 10:50:18;;;;;;;11.87;11.23;;;8.60;99.90;;;;;;4784821;29;20450;-43
2024/02/19 10:52:44;;;;;;;10.93;10.43;;;8.50;99.90;;;;;;4792750;29;20439;-43
2024/02/19 10:55:17;;;;;;;11.40;10.90;;;8.50;99.90;;;;;;4791407;29;20435;-43
2024/02/19 10:58:02;;;;;;;10.83;10.30;;;8.50;99.90;;;;;;4792806;29;20442;-44
2024/02/19 11:00:29;;;;;;;11.60;11.00;;;8.40;99.90;;;;;;4784621;29;20479;-42
2024/02/19 11:03:08;;;;;;;11.47;10.93;;;8.40;99.90;;;;;;4790977;29;20741;-49
2024/02/19 11:05:45;;;;;;;11.43;10.73;;;8.40;99.90;;;;;;4785708;29;20441;-44
2024/02/19 11:08:22;;;;;;;12.53;11.93;;;8.30;99.90;;;;;;4792579;29;20431;-43
2024/02/19 11:10:50;;;;;;;11.90;11.30;;;8.30;99.90;;;;;;4784911;29;20780;-44
2024/02/19 11:13:26;;;;;;;10.80;10.23;;;8.40;99.90;;;;;;4782033;29;20572;-45
2024/02/19 11:15:53;;;;;;;11.73;11.20;;;8.30;99.90;;;;;;4791286;29;20889;-47
2024/02/19 11:18:19;;;;;;;11.13;10.63;;;8.40;99.90;;;;;;4783906;29;20819;-53
2024/02/19 11:20:46;;;;;;;11.63;11.03;;;8.40;99.90;;;;;;4783964;29;20599;-51
2024/02/19 11:23:15;;;;;;;11.23;10.63;;;8.40;99.90;;;;;;4787528;29;20464;-49
2024/02/19 11:25:42;;;;;;;11.40;10.80;;;8.40;99.90;;;;;;4783227;29;20994;-50
2024/02/19 11:28:07;;;;;;;11.40;10.80;;;8.50;99.90;;;;;;4777768;29;20452;-49
2024/02/19 11:30:33;;;;;;;11.37;10.87;;;8.60;99.90;;;;;;4791151;29;20439;-52
2024/02/19 11:33:03;;;;;;;11.47;10.97;;;8.60;99.90;;;;;;4792209;29;20977;-51
2024/02/19 11:35:30;;;;;;;11.40;10.90;;;8.60;99.90;;;;;;4789428;29;20459;-50
2024/02/19 11:37:55;;;;;;;11.10;10.60;;;8.60;99.90;;;;;;4783051;29;20440;-53
2024/02/19 11:40:21;;;;;;;11.20;10.70;;;8.60;99.90;;;;;;4786750;29;20978;-52
2024/02/19 11:42:51;;;;;;;10.97;10.47;;;8.70;99.90;;;;;;4780775;29;20765;-46
2024/02/19 11:45:17;;;;;;;10.93;10.43;;;8.60;99.90;;;;;;4791078;29;20374;-54
2024/02/19 11:47:43;;;;;;;12.33;11.73;;;8.60;99.90;;;;;;4776324;29;20433;-52
2024/02/19 11:50:16;;;;;;;10.90;10.40;;;8.70;99.90;;;;;;4792152;29;20453;-52
2024/02/19 11:52:45;;;;;;;11.83;11.30;;;8.80;99.90;;;;;;4778379;29;20512;-50
2024/02/19 11:55:19;;;;;;;11.80;11.30;;;8.80;99.90;;;;;;4790038;29;20972;-52
2024/02/19 11:57:45;;;;;;;11.30;10.70;;;8.80;99.90;;;;;;4784351;29;20441;-50
2024/02/19 12:00:14;;;;;;;11.80;11.23;;;8.90;99.90;;;;;;4794255;29;20887;-54
2024/02/19 12:02:45;;;;;;;11.40;10.90;;;8.90;99.90;;;;;;4791287;29;20194;-51
2024/02/19 12:05:11;;;;;;;11.70;11.20;;;8.90;99.90;;;;;;4791480;29;20452;-51
2024/02/19 12:07:37;;;;;;;11.57;10.97;;;8.90;99.90;;;;;;4789502;29;21106;-49
2024/02/19 12:10:05;;;;;;;10.53;10.00;;;8.90;99.90;;;;;;4789793;29;20195;-49
2024/02/19 12:12:31;;;;;;;11.20;10.70;;;8.90;99.90;;;;;;4793645;29;20483;-50
2024/02/19 12:14:59;;;;;;;12.03;11.43;;;8.90;99.90;;;;;;4789216;29;20551;-46
2024/02/19 12:17:25;;;;;;;11.70;11.20;;;8.90;99.90;;;;;;4783694;29;20425;-43
2024/02/19 12:19:50;;;;;;;11.60;11.10;;;8.90;99.90;;;;;;4793753;29;20475;-45
2024/02/19 12:22:16;;;;;;;12.30;11.80;;;8.80;99.90;;;;;;4785258;29;20274;-43
2024/02/19 12:24:41;;;;;;;12.30;11.70;;;8.70;99.90;;;;;;4786602;29;20677;-42
2024/02/19 12:27:07;;;;;;;12.80;12.20;;;8.60;99.90;;;;;;4789509;29;20244;-43
2024/02/19 12:29:33;;;;;;;11.50;10.90;;;8.50;99.90;;;;;;4793351;29;20612;-44
2024/02/19 12:31:59;;;;;;;12.30;11.80;;;8.50;99.90;;;;;;4784977;29;20183;-45
2024/02/19 12:34:25;;;;;;;11.67;11.13;;;8.60;99.90;;;;;;4787119;29;20424;-46